Time;durP1;ratioP1;P1;durP2;ratioP2;P2;SDS_P1;SDS_P2;PMS_P1;PMS_P2;Temp;Humidity;BMP_temperature;BMP_pressure;BME280_temperature;BME280_humidity;BME280_pressure;Samples;Min_cycle;Max_cycle;Signal;HPM_P1;HPM_P2
2022/03/25 00:01:57;;;;;;;36.97;23.83;;;13.10;47.70;;;;;;5051651;28;20033;-59
2022/03/25 00:04:23;;;;;;;37.03;24.13;;;13.10;47.80;;;;;;5035138;28;20024;-62
2022/03/25 00:06:48;;;;;;;36.80;23.67;;;13.00;47.80;;;;;;5049037;28;20025;-62
2022/03/25 00:09:14;;;;;;;36.67;25.77;;;13.00;47.90;;;;;;5054850;28;20110;-62
2022/03/25 00:11:40;;;;;;;34.03;23.80;;;12.90;47.80;;;;;;5068365;28;20064;-58
2022/03/25 00:14:06;;;;;;;36.70;24.88;;;12.90;47.90;;;;;;5052394;28;20029;-58
2022/03/25 00:16:32;;;;;;;39.42;24.63;;;12.90;48.10;;;;;;5033058;28;20404;-59
2022/03/25 00:18:58;;;;;;;36.88;24.27;;;12.80;48.20;;;;;;5064622;28;20372;-58
2022/03/25 00:21:24;;;;;;;40.53;26.15;;;12.80;48.20;;;;;;5069006;28;20037;-58
2022/03/25 00:23:50;;;;;;;40.47;26.85;;;12.70;48.40;;;;;;5065675;28;20031;-58
2022/03/25 00:26:15;;;;;;;37.65;27.20;;;12.70;48.80;;;;;;5042946;28;20045;-58
2022/03/25 00:28:41;;;;;;;38.85;26.17;;;12.60;48.70;;;;;;5068261;28;20040;-61
2022/03/25 00:31:07;;;;;;;36.28;26.23;;;12.60;48.30;;;;;;5065346;28;20082;-61
2022/03/25 00:33:34;;;;;;;36.97;25.83;;;12.50;48.50;;;;;;5049388;28;20044;-58
2022/03/25 00:36:01;;;;;;;39.35;26.83;;;12.50;48.50;;;;;;5053305;28;20032;-62
2022/03/25 00:38:27;;;;;;;40.25;26.90;;;12.50;48.80;;;;;;5058738;28;20025;-62
2022/03/25 00:40:54;;;;;;;44.70;28.70;;;12.40;48.90;;;;;;5051618;28;20025;-59
2022/03/25 00:43:21;;;;;;;41.05;27.13;;;12.30;49.00;;;;;;5062981;28;20041;-58
2022/03/25 00:45:46;;;;;;;39.47;27.67;;;12.30;49.20;;;;;;5055469;28;20033;-59
2022/03/25 00:48:13;;;;;;;42.85;28.35;;;12.30;49.30;;;;;;5043485;28;20127;-58
2022/03/25 00:50:39;;;;;;;44.67;29.33;;;12.30;49.30;;;;;;5053194;28;20025;-62
2022/03/25 00:53:05;;;;;;;45.85;30.35;;;12.20;49.50;;;;;;5059471;28;20037;-62
2022/03/25 00:55:31;;;;;;;44.50;30.27;;;12.20;49.80;;;;;;5068140;28;20042;-61
2022/03/25 00:57:58;;;;;;;44.03;31.58;;;12.10;49.90;;;;;;5066207;28;20020;-61
2022/03/25 01:00:24;;;;;;;43.30;29.70;;;12.10;50.20;;;;;;5062084;28;20028;-62
2022/03/25 01:02:50;;;;;;;42.20;29.60;;;12.00;50.20;;;;;;5065487;28;20391;-61
2022/03/25 01:05:17;;;;;;;42.67;30.38;;;12.00;50.30;;;;;;5052374;28;20031;-62
2022/03/25 01:07:44;;;;;;;43.42;31.67;;;12.00;50.70;;;;;;5055742;28;20039;-62
2022/03/25 01:10:10;;;;;;;44.42;30.58;;;12.00;50.90;;;;;;5066452;28;20090;-62
2022/03/25 01:12:35;;;;;;;49.00;33.25;;;11.90;50.90;;;;;;5067257;28;20075;-62
2022/03/25 01:15:02;;;;;;;49.22;34.08;;;11.80;51.20;;;;;;5048110;28;20053;-62
2022/03/25 01:17:28;;;;;;;53.67;34.60;;;11.80;51.40;;;;;;5056559;28;20380;-58
2022/03/25 01:19:53;;;;;;;50.38;34.53;;;11.70;51.50;;;;;;5051386;28;20032;-62
2022/03/25 01:22:19;;;;;;;47.00;34.00;;;11.70;51.40;;;;;;5054889;28;20036;-61
2022/03/25 01:24:45;;;;;;;48.22;33.90;;;11.60;51.60;;;;;;5047927;28;20437;-61
2022/03/25 01:27:11;;;;;;;49.00;32.85;;;11.60;51.90;;;;;;5055918;28;20106;-62
2022/03/25 01:29:36;;;;;;;51.35;34.42;;;11.60;51.80;;;;;;5062666;28;20040;-62
2022/03/25 01:32:04;;;;;;;47.20;32.75;;;11.60;52.00;;;;;;5040275;28;20060;-58
2022/03/25 01:34:32;;;;;;;51.03;34.75;;;11.50;52.00;;;;;;5053189;28;20029;-59
2022/03/25 01:36:58;;;;;;;53.35;36.30;;;11.50;52.30;;;;;;5055213;28;20051;-58
2022/03/25 01:39:23;;;;;;;50.20;34.42;;;11.40;52.60;;;;;;5048329;28;20067;-58
2022/03/25 01:41:49;;;;;;;50.80;35.88;;;11.40;52.80;;;;;;5058052;28;20035;-58
2022/03/25 01:44:27;;;;;;;51.42;35.80;;;11.30;53.10;;;;;;5057355;28;20064;-58
2022/03/25 01:46:55;;;;;;;51.50;36.53;;;11.30;53.30;;;;;;5063630;28;20436;-58
2022/03/25 01:49:22;;;;;;;53.90;36.42;;;11.30;53.40;;;;;;5066924;28;20028;-62
2022/03/25 01:51:53;;;;;;;51.65;36.40;;;11.20;53.40;;;;;;5064743;28;20025;-62
2022/03/25 01:54:27;;;;;;;56.05;35.72;;;11.20;53.60;;;;;;5060207;28;20105;-62
2022/03/25 01:57:08;;;;;;;47.83;34.00;;;11.10;53.70;;;;;;5058341;28;20060;-62
2022/03/25 01:59:34;;;;;;;51.63;35.40;;;11.10;53.80;;;;;;5061249;28;20449;-62
2022/03/25 02:02:03;;;;;;;55.40;37.63;;;11.10;53.80;;;;;;5050636;28;20025;-62
2022/03/25 02:04:29;;;;;;;50.13;34.80;;;11.00;54.00;;;;;;5060737;28;20061;-62
2022/03/25 02:06:54;;;;;;;53.47;37.50;;;10.90;54.00;;;;;;5064463;28;20064;-62
2022/03/25 02:09:20;;;;;;;54.05;37.50;;;11.00;54.10;;;;;;5064936;28;20029;-62
2022/03/25 02:11:46;;;;;;;50.60;35.05;;;10.90;54.10;;;;;;5013531;28;20098;-59
2022/03/25 02:14:12;;;;;;;50.47;35.88;;;10.90;54.20;;;;;;5047899;28;20025;-59
2022/03/25 02:16:40;;;;;;;57.15;38.22;;;10.80;54.20;;;;;;5049041;28;20074;-59
2022/03/25 02:19:08;;;;;;;56.30;37.72;;;10.80;54.30;;;;;;5056943;28;20029;-59
2022/03/25 02:21:35;;;;;;;57.17;38.78;;;10.80;54.50;;;;;;5049104;28;20079;-59
2022/03/25 02:24:01;;;;;;;54.63;37.60;;;10.80;54.70;;;;;;5060427;28;20028;-59
2022/03/25 02:26:27;;;;;;;54.33;37.00;;;10.80;54.80;;;;;;5066437;28;20033;-62
2022/03/25 02:28:54;;;;;;;59.17;39.58;;;10.70;54.80;;;;;;5067318;28;20439;-62
2022/03/25 02:31:21;;;;;;;58.70;39.47;;;10.70;55.00;;;;;;5064278;28;20090;-59
2022/03/25 02:33:46;;;;;;;58.58;40.70;;;10.70;55.90;;;;;;5066272;28;20119;-62
2022/03/25 02:36:12;;;;;;;57.08;40.78;;;10.60;55.30;;;;;;5046945;28;20104;-61
2022/03/25 02:38:38;;;;;;;60.53;41.95;;;10.60;55.50;;;;;;5061094;28;20040;-62
2022/03/25 02:41:04;;;;;;;58.10;40.90;;;10.60;55.70;;;;;;5054404;28;20030;-62
2022/03/25 02:43:30;;;;;;;61.65;43.92;;;10.60;55.90;;;;;;5064399;28;20020;-62
2022/03/25 02:45:56;;;;;;;62.72;43.45;;;10.60;56.20;;;;;;5065603;28;20055;-62
2022/03/25 02:48:22;;;;;;;61.38;43.63;;;10.50;56.20;;;;;;5050445;28;20029;-58
2022/03/25 02:50:48;;;;;;;64.05;43.45;;;10.50;56.40;;;;;;5051688;28;20090;-58
2022/03/25 02:53:15;;;;;;;65.15;43.50;;;10.50;56.40;;;;;;5048916;28;20032;-58
2022/03/25 02:55:41;;;;;;;60.38;42.28;;;10.50;56.50;;;;;;5054861;28;20111;-59
2022/03/25 02:58:08;;;;;;;61.10;43.97;;;10.40;56.60;;;;;;5066225;28;20032;-58
2022/03/25 03:00:34;;;;;;;63.22;43.78;;;10.40;56.80;;;;;;5016238;28;20033;-61
2022/03/25 03:03:00;;;;;;;65.32;44.38;;;10.30;56.90;;;;;;5055229;28;20033;-62
2022/03/25 03:05:27;;;;;;;68.43;46.20;;;10.30;57.10;;;;;;5033780;28;20127;-61
2022/03/25 03:07:53;;;;;;;66.18;44.67;;;10.30;57.20;;;;;;5070745;28;20490;-62
2022/03/25 03:10:19;;;;;;;63.78;44.78;;;10.20;57.40;;;;;;5024270;28;20033;-61
2022/03/25 03:12:44;;;;;;;67.72;46.55;;;10.20;57.50;;;;;;5051479;28;20035;-62
2022/03/25 03:15:12;;;;;;;69.55;46.25;;;10.20;57.60;;;;;;5059000;28;20028;-62
2022/03/25 03:17:38;;;;;;;72.57;47.50;;;10.20;57.70;;;;;;5064326;28;20028;-62
2022/03/25 03:20:05;;;;;;;69.72;45.92;;;10.10;57.70;;;;;;5043647;28;20499;-59
2022/03/25 03:22:30;;;;;;;65.15;45.97;;;10.10;57.80;;;;;;5038680;28;20041;-59
2022/03/25 03:24:56;;;;;;;70.68;47.50;;;10.10;57.80;;;;;;5053097;28;20416;-62
2022/03/25 03:27:22;;;;;;;69.85;46.78;;;10.00;58.10;;;;;;5051082;28;20029;-63
2022/03/25 03:29:48;;;;;;;66.82;46.60;;;10.00;58.20;;;;;;5067839;28;20047;-62
2022/03/25 03:32:13;;;;;;;65.70;44.70;;;10.00;58.20;;;;;;5049550;28;20047;-59
2022/03/25 03:34:39;;;;;;;72.80;47.15;;;10.00;58.30;;;;;;5061348;28;20115;-62
2022/03/25 03:37:05;;;;;;;66.95;47.45;;;9.90;58.30;;;;;;5058271;28;20106;-62
2022/03/25 03:39:30;;;;;;;73.15;49.13;;;9.90;58.50;;;;;;5059185;28;20036;-62
2022/03/25 03:41:56;;;;;;;71.38;48.38;;;9.90;58.80;;;;;;5069573;28;20491;-62
2022/03/25 03:44:23;;;;;;;73.47;48.10;;;9.80;58.80;;;;;;5054357;28;20427;-61
2022/03/25 03:46:49;;;;;;;71.75;47.58;;;9.80;58.90;;;;;;5032623;28;20036;-58
2022/03/25 03:49:15;;;;;;;74.13;50.50;;;9.80;59.40;;;;;;5046485;28;20032;-58
2022/03/25 03:51:40;;;;;;;74.72;50.10;;;9.70;59.60;;;;;;5063084;28;20026;-58
2022/03/25 03:54:06;;;;;;;75.30;49.83;;;9.70;59.70;;;;;;5049250;28;20471;-58
2022/03/25 03:56:32;;;;;;;75.00;51.80;;;9.70;60.00;;;;;;5058905;28;20025;-59
2022/03/25 03:58:58;;;;;;;74.18;52.60;;;9.60;60.00;;;;;;5046082;28;20039;-61
2022/03/25 04:01:23;;;;;;;78.60;52.50;;;9.60;60.80;;;;;;5069638;28;20127;-61
2022/03/25 04:03:49;;;;;;;75.72;52.65;;;9.60;60.30;;;;;;5069111;28;20078;-61
2022/03/25 04:06:14;;;;;;;76.60;51.58;;;9.60;60.50;;;;;;5057346;28;20404;-62
2022/03/25 04:08:40;;;;;;;75.03;51.47;;;9.50;60.60;;;;;;5038763;28;20025;-62
2022/03/25 04:11:07;;;;;;;76.15;52.55;;;9.50;60.80;;;;;;5038514;28;20032;-62
2022/03/25 04:13:32;;;;;;;78.95;52.90;;;9.50;61.00;;;;;;5065858;28;20024;-58
2022/03/25 04:15:58;;;;;;;78.10;51.90;;;9.40;61.00;;;;;;5062853;28;20021;-62
2022/03/25 04:18:23;;;;;;;75.57;51.10;;;9.40;61.10;;;;;;5042868;28;20116;-61
2022/03/25 04:20:50;;;;;;;81.05;55.03;;;9.40;61.30;;;;;;5049881;28;20036;-61
2022/03/25 04:23:16;;;;;;;81.32;55.05;;;9.30;61.50;;;;;;5061184;28;20036;-62
2022/03/25 04:25:42;;;;;;;77.20;53.22;;;9.30;61.80;;;;;;5050749;28;20052;-59
2022/03/25 04:28:09;;;;;;;79.05;53.70;;;9.30;61.80;;;;;;5042639;28;20518;-59
2022/03/25 04:30:37;;;;;;;79.07;54.08;;;9.30;61.90;;;;;;5048257;28;20076;-59
2022/03/25 04:33:04;;;;;;;74.60;51.83;;;9.20;62.00;;;;;;5056444;28;20048;-59
2022/03/25 04:35:30;;;;;;;77.65;53.65;;;9.20;61.90;;;;;;5049612;28;20025;-59
2022/03/25 04:37:57;;;;;;;73.43;50.97;;;9.20;61.90;;;;;;5034052;28;20488;-59
2022/03/25 04:40:25;;;;;;;73.63;52.30;;;9.20;61.90;;;;;;5068343;28;20027;-58
2022/03/25 04:42:53;;;;;;;78.10;51.67;;;9.10;62.00;;;;;;5062132;28;20028;-59
2022/03/25 04:45:19;;;;;;;80.93;53.45;;;9.10;62.00;;;;;;5031165;28;20086;-58
2022/03/25 04:47:45;;;;;;;83.65;54.95;;;9.10;62.20;;;;;;5067705;28;20036;-58
2022/03/25 04:50:12;;;;;;;78.72;54.03;;;9.00;62.30;;;;;;5054275;28;20036;-57
2022/03/25 04:52:38;;;;;;;82.85;53.50;;;9.00;62.40;;;;;;5056111;28;20400;-61
2022/03/25 04:55:05;;;;;;;80.43;55.60;;;9.00;62.50;;;;;;5048287;28;20075;-62
2022/03/25 04:57:30;;;;;;;81.75;54.22;;;9.00;62.60;;;;;;5062483;28;20365;-62
2022/03/25 04:59:56;;;;;;;83.55;55.88;;;8.90;62.70;;;;;;5052020;28;20048;-62
2022/03/25 05:02:23;;;;;;;84.80;54.85;;;8.90;62.70;;;;;;5014280;28;20025;-62
2022/03/25 05:04:49;;;;;;;82.15;55.28;;;8.80;62.90;;;;;;5048136;28;20032;-61
2022/03/25 05:07:16;;;;;;;83.65;55.30;;;8.80;62.80;;;;;;5050455;28;20029;-61
2022/03/25 05:09:42;;;;;;;82.63;57.28;;;8.80;62.90;;;;;;5047603;28;20175;-62
2022/03/25 05:12:09;;;;;;;83.22;56.50;;;8.80;63.00;;;;;;5055538;28;20086;-61
2022/03/25 05:14:35;;;;;;;86.97;57.58;;;8.80;63.10;;;;;;5052844;28;20033;-61
2022/03/25 05:17:01;;;;;;;86.13;56.53;;;8.70;63.30;;;;;;5043371;28;20051;-62
2022/03/25 05:19:27;;;;;;;86.05;57.08;;;8.70;63.50;;;;;;5056123;28;20043;-59
2022/03/25 05:21:52;;;;;;;87.10;58.30;;;8.70;63.70;;;;;;5050399;28;20033;-58
2022/03/25 05:24:19;;;;;;;89.18;56.35;;;8.70;63.80;;;;;;5049738;28;20033;-62
2022/03/25 05:26:44;;;;;;;80.68;54.67;;;8.60;63.70;;;;;;5061235;28;20033;-62
2022/03/25 05:29:10;;;;;;;83.32;56.03;;;8.60;63.60;;;;;;5049992;28;20029;-61
2022/03/25 05:31:37;;;;;;;83.20;54.58;;;8.60;63.70;;;;;;5067547;28;20080;-62
2022/03/25 05:34:06;;;;;;;82.68;56.67;;;8.60;63.70;;;;;;5067828;28;20494;-62
2022/03/25 05:36:33;;;;;;;85.15;55.47;;;8.50;63.70;;;;;;5031252;28;20035;-62
2022/03/25 05:38:59;;;;;;;89.13;57.60;;;8.50;63.90;;;;;;5047260;28;20499;-59
2022/03/25 05:41:26;;;;;;;89.20;55.45;;;8.50;64.00;;;;;;5057702;28;20013;-62
2022/03/25 05:43:52;;;;;;;85.40;56.63;;;8.50;64.30;;;;;;5059408;28;20134;-62
2022/03/25 05:46:18;;;;;;;83.75;56.20;;;8.50;64.70;;;;;;5062814;28;20029;-62
2022/03/25 05:48:44;;;;;;;86.70;58.13;;;8.40;64.80;;;;;;5057657;28;20376;-62
2022/03/25 05:51:10;;;;;;;86.50;57.67;;;8.40;64.80;;;;;;5049048;28;20017;-62
2022/03/25 05:53:36;;;;;;;92.13;58.53;;;8.40;65.10;;;;;;5050944;28;20052;-58
2022/03/25 05:56:03;;;;;;;85.68;58.30;;;8.40;65.30;;;;;;5063347;28;20466;-61
2022/03/25 05:58:35;;;;;;;87.03;58.40;;;8.40;65.60;;;;;;5057948;28;20083;-58
2022/03/25 06:01:04;;;;;;;88.78;58.92;;;8.40;65.80;;;;;;5049150;28;20056;-58
2022/03/25 06:03:31;;;;;;;84.78;56.72;;;8.40;66.00;;;;;;5061431;28;20033;-58
2022/03/25 06:05:57;;;;;;;90.30;60.33;;;8.40;66.00;;;;;;5049411;28;20036;-58
2022/03/25 06:08:23;;;;;;;93.00;61.70;;;8.40;66.30;;;;;;5047923;28;20036;-58
2022/03/25 06:10:50;;;;;;;85.20;57.47;;;8.40;66.60;;;;;;5049041;28;20082;-57
2022/03/25 06:13:16;;;;;;;88.72;57.45;;;8.40;66.60;;;;;;5059898;28;20021;-59
2022/03/25 06:15:42;;;;;;;93.50;61.38;;;8.40;66.60;;;;;;5037022;28;20073;-62
2022/03/25 06:18:08;;;;;;;93.20;60.33;;;8.40;67.00;;;;;;5067232;28;20021;-59
2022/03/25 06:20:34;;;;;;;88.80;57.80;;;8.40;67.20;;;;;;5059475;28;20044;-59
2022/03/25 06:23:00;;;;;;;87.60;58.72;;;8.40;67.30;;;;;;5052343;28;20029;-59
2022/03/25 06:25:25;;;;;;;84.20;55.55;;;8.40;67.30;;;;;;5056008;28;20083;-59
2022/03/25 06:27:56;;;;;;;85.22;57.97;;;8.40;67.40;;;;;;5056825;28;20382;-62
2022/03/25 06:30:26;;;;;;;83.60;56.20;;;8.40;67.60;;;;;;5037252;28;20424;-58
2022/03/25 06:32:52;;;;;;;85.75;57.03;;;8.50;67.70;;;;;;5067146;28;20031;-58
2022/03/25 06:35:18;;;;;;;88.13;58.40;;;8.50;67.90;;;;;;5054338;28;20021;-59
2022/03/25 06:37:44;;;;;;;82.38;55.78;;;8.50;67.80;;;;;;5058996;28;20067;-62
2022/03/25 06:40:11;;;;;;;83.78;56.78;;;8.50;68.00;;;;;;5070214;28;20031;-62
2022/03/25 06:42:38;;;;;;;85.13;56.65;;;8.60;68.10;;;;;;5032993;28;20426;-58
2022/03/25 06:45:07;;;;;;;82.75;55.35;;;8.60;68.00;;;;;;5056800;28;20028;-59
2022/03/25 06:47:33;;;;;;;82.85;55.15;;;8.60;68.10;;;;;;5046392;28;20064;-62
2022/03/25 06:49:59;;;;;;;87.25;56.20;;;8.70;68.10;;;;;;5050543;28;20040;-58
2022/03/25 06:52:25;;;;;;;81.70;54.80;;;8.70;68.20;;;;;;5061460;28;20025;-59
2022/03/25 06:54:51;;;;;;;84.80;54.80;;;8.70;68.20;;;;;;5051552;28;20033;-59
2022/03/25 06:57:17;;;;;;;82.35;54.70;;;8.80;68.10;;;;;;5057555;28;20029;-62
2022/03/25 06:59:43;;;;;;;78.28;52.90;;;8.80;68.20;;;;;;5066520;28;20040;-62
2022/03/25 07:02:10;;;;;;;80.85;54.83;;;8.80;68.20;;;;;;5071221;28;20416;-62
2022/03/25 07:04:37;;;;;;;84.68;58.22;;;8.80;68.20;;;;;;5053094;28;20033;-59
2022/03/25 07:07:04;;;;;;;80.93;54.17;;;8.90;68.30;;;;;;5071425;28;20032;-60
2022/03/25 07:09:31;;;;;;;79.30;54.60;;;8.90;68.30;;;;;;5070712;28;20391;-60
2022/03/25 07:11:57;;;;;;;84.15;54.88;;;9.00;68.20;;;;;;5071203;28;20102;-59
2022/03/25 07:14:23;;;;;;;79.63;53.33;;;9.00;68.00;;;;;;5071370;28;20103;-62
2022/03/25 07:16:49;;;;;;;70.05;48.83;;;9.00;68.00;;;;;;5068658;28;20104;-58
2022/03/25 07:19:14;;;;;;;77.65;52.60;;;9.00;67.80;;;;;;5064517;28;20035;-59
2022/03/25 07:21:40;;;;;;;78.63;54.15;;;9.10;68.00;;;;;;5070981;28;20040;-59
2022/03/25 07:24:06;;;;;;;82.13;56.38;;;9.20;68.00;;;;;;5070792;28;20017;-62
2022/03/25 07:26:32;;;;;;;81.72;54.85;;;9.20;68.00;;;;;;5070046;28;20035;-60
2022/03/25 07:28:58;;;;;;;76.95;52.88;;;9.30;67.90;;;;;;5069556;28;20482;-62
2022/03/25 07:31:28;;;;;;;75.55;52.97;;;9.30;67.80;;;;;;5067558;28;20053;-61
2022/03/25 07:33:55;;;;;;;76.57;51.70;;;9.40;67.70;;;;;;5068049;28;20031;-59
2022/03/25 07:36:20;;;;;;;68.05;49.33;;;9.40;67.60;;;;;;5070830;28;20391;-60
2022/03/25 07:38:46;;;;;;;75.28;50.63;;;9.50;67.60;;;;;;5068298;28;20111;-59
2022/03/25 07:41:12;;;;;;;74.18;50.20;;;9.50;67.30;;;;;;5068843;28;20143;-59
2022/03/25 07:43:39;;;;;;;67.72;48.50;;;9.60;67.20;;;;;;5052518;28;20066;-58
2022/03/25 07:46:04;;;;;;;70.13;47.85;;;9.60;66.90;;;;;;5068798;28;20113;-59
2022/03/25 07:48:30;;;;;;;67.88;48.53;;;9.60;66.60;;;;;;5035869;28;20021;-59
2022/03/25 07:50:56;;;;;;;69.28;48.03;;;9.70;66.40;;;;;;5060854;28;20130;-59
2022/03/25 07:53:22;;;;;;;68.50;48.53;;;9.70;66.30;;;;;;5061018;28;20020;-59
2022/03/25 07:55:50;;;;;;;67.15;47.13;;;9.70;66.30;;;;;;5057347;28;20044;-62
2022/03/25 07:58:20;;;;;;;65.97;47.15;;;9.80;66.30;;;;;;5063897;28;20025;-61
2022/03/25 08:00:50;;;;;;;69.78;48.30;;;9.80;66.80;;;;;;5064877;28;20062;-62
2022/03/25 08:03:16;;;;;;;68.07;48.05;;;9.90;65.80;;;;;;5059796;28;20556;-62
2022/03/25 08:05:43;;;;;;;65.55;48.40;;;9.90;65.90;;;;;;5071321;28;20066;-61
2022/03/25 08:08:09;;;;;;;70.70;50.88;;;10.00;65.70;;;;;;5074461;28;20879;-59
2022/03/25 08:10:36;;;;;;;73.32;52.00;;;10.10;65.50;;;;;;5061278;28;20503;-59
2022/03/25 08:13:02;;;;;;;70.45;51.03;;;10.10;65.50;;;;;;5064057;28;20021;-61
2022/03/25 08:15:29;;;;;;;69.95;48.75;;;10.10;65.40;;;;;;5068472;28;20341;-61
2022/03/25 08:18:00;;;;;;;68.63;48.83;;;10.20;65.30;;;;;;5049717;28;20036;-59
2022/03/25 08:20:35;;;;;;;65.15;46.08;;;10.30;65.10;;;;;;5067419;28;20390;-61
2022/03/25 08:23:01;;;;;;;62.72;44.95;;;10.40;65.00;;;;;;5044796;28;20035;-61
2022/03/25 08:28:14;;;;;;;66.07;48.63;;;10.50;64.40;;;;;;5072333;28;20089;-61
2022/03/25 08:30:40;;;;;;;67.82;46.58;;;10.60;64.20;;;;;;5043000;28;20044;-62
2022/03/25 08:33:06;;;;;;;63.47;46.58;;;10.70;64.10;;;;;;5063295;28;20077;-61
2022/03/25 08:35:32;;;;;;;62.88;45.13;;;10.70;63.90;;;;;;5055209;28;20025;-61
2022/03/25 08:37:59;;;;;;;68.05;49.10;;;10.80;63.70;;;;;;5056079;28;20054;-60
2022/03/25 08:40:27;;;;;;;67.78;46.92;;;10.90;63.20;;;;;;5060765;28;20032;-61
2022/03/25 08:42:52;;;;;;;59.20;43.72;;;10.90;62.90;;;;;;5057959;28;20114;-61
2022/03/25 08:45:19;;;;;;;62.67;44.35;;;11.00;62.70;;;;;;5066866;28;20059;-62
2022/03/25 08:47:45;;;;;;;61.97;45.72;;;11.10;62.30;;;;;;5068373;28;20028;-61
2022/03/25 08:50:13;;;;;;;62.03;43.88;;;11.20;61.90;;;;;;5049664;28;20034;-60
2022/03/25 08:52:43;;;;;;;59.28;42.60;;;11.30;61.80;;;;;;5069548;28;20031;-61
2022/03/25 08:55:11;;;;;;;61.10;43.33;;;11.40;61.30;;;;;;5057883;28;20017;-61
2022/03/25 08:57:38;;;;;;;63.47;45.17;;;11.50;60.90;;;;;;5068354;28;20368;-59
2022/03/25 09:00:07;;;;;;;61.80;44.88;;;11.50;60.50;;;;;;5068306;28;20039;-59
2022/03/25 09:02:32;;;;;;;67.25;45.47;;;11.60;60.70;;;;;;5060834;28;20020;-59
2022/03/25 09:04:58;;;;;;;61.92;43.50;;;11.70;60.10;;;;;;5065601;28;20035;-59
2022/03/25 09:07:24;;;;;;;68.88;46.95;;;11.80;60.10;;;;;;5063004;28;20035;-59
2022/03/25 09:09:49;;;;;;;67.88;50.05;;;11.90;59.50;;;;;;5063955;28;20056;-59
2022/03/25 09:12:15;;;;;;;66.00;47.22;;;11.90;58.80;;;;;;5062139;28;20060;-62
2022/03/25 09:14:41;;;;;;;61.05;45.00;;;12.00;59.70;;;;;;5063764;28;20051;-60
2022/03/25 09:17:06;;;;;;;59.78;43.30;;;12.10;58.70;;;;;;5062256;28;20496;-61
2022/03/25 09:19:32;;;;;;;62.50;46.13;;;12.10;58.60;;;;;;5047237;28;20469;-61
2022/03/25 09:21:58;;;;;;;57.83;43.80;;;12.20;58.50;;;;;;5064956;28;20042;-59
2022/03/25 09:24:23;;;;;;;62.75;45.08;;;12.30;58.10;;;;;;5061267;28;20037;-59
2022/03/25 09:26:49;;;;;;;58.20;42.67;;;12.40;58.00;;;;;;5069356;28;20021;-60
2022/03/25 09:29:15;;;;;;;59.33;43.00;;;12.50;57.80;;;;;;5056247;28;20044;-61
2022/03/25 09:31:43;;;;;;;55.30;40.13;;;12.60;57.60;;;;;;5061119;28;20601;-59
2022/03/25 09:36:57;;;;;;;49.97;37.92;;;12.80;57.10;;;;;;5056560;28;20063;-60
2022/03/25 09:39:23;;;;;;;55.78;41.50;;;13.00;56.90;;;;;;5063325;28;20032;-59
2022/03/25 09:41:50;;;;;;;55.05;42.13;;;13.10;56.20;;;;;;5056490;28;20033;-59
2022/03/25 09:44:16;;;;;;;57.78;42.08;;;13.20;56.30;;;;;;5053065;28;20032;-59
2022/03/25 09:46:42;;;;;;;55.85;39.53;;;13.20;55.80;;;;;;5059882;28;20032;-59
2022/03/25 09:49:12;;;;;;;54.30;40.78;;;13.30;55.80;;;;;;5057259;28;20112;-58
2022/03/25 09:51:40;;;;;;;48.83;36.92;;;13.40;55.60;;;;;;5065935;28;20542;-61
2022/03/25 09:54:08;;;;;;;50.85;38.67;;;13.50;55.60;;;;;;5067559;28;20058;-61
2022/03/25 09:56:34;;;;;;;51.05;36.75;;;13.60;55.30;;;;;;5040273;28;20524;-61
2022/03/25 09:59:00;;;;;;;52.35;38.75;;;13.80;55.10;;;;;;5067275;28;20021;-61
2022/03/25 10:01:26;;;;;;;51.58;38.80;;;13.80;54.70;;;;;;5066187;28;20029;-61
2022/03/25 10:03:52;;;;;;;52.55;38.40;;;14.00;54.70;;;;;;5066778;28;20056;-61
2022/03/25 10:06:18;;;;;;;47.08;36.17;;;14.20;54.40;;;;;;5055238;28;20084;-61
2022/03/25 10:08:56;;;;;;;51.20;37.45;;;14.30;54.10;;;;;;5052846;28;20070;-63
2022/03/25 10:11:30;;;;;;;55.53;38.88;;;14.30;53.90;;;;;;5072410;28;20032;-61
2022/03/25 10:14:15;;;;;;;57.47;41.50;;;14.50;53.20;;;;;;5067389;28;20181;-61
2022/03/25 10:16:43;;;;;;;48.92;38.42;;;14.50;52.90;;;;;;5065275;28;20557;-61
2022/03/25 10:19:11;;;;;;;47.60;36.63;;;14.60;53.10;;;;;;5071494;28;20471;-61
2022/03/25 10:21:52;;;;;;;46.50;36.13;;;14.70;53.10;;;;;;5049609;28;20043;-61
2022/03/25 10:24:34;;;;;;;49.28;35.38;;;14.80;52.80;;;;;;5063557;28;20025;-61
2022/03/25 10:27:04;;;;;;;42.35;32.53;;;14.90;52.50;;;;;;5069299;28;20078;-61
2022/03/25 10:29:30;;;;;;;46.75;34.10;;;15.10;52.40;;;;;;5070487;28;20608;-59
2022/03/25 10:32:26;;;;;;;46.70;34.03;;;15.20;52.10;;;;;;5064761;28;20111;-60
2022/03/25 10:35:10;;;;;;;45.17;32.95;;;15.30;51.70;;;;;;5068259;28;20483;-62
2022/03/25 10:37:38;;;;;;;43.33;32.17;;;15.40;51.80;;;;;;5060577;28;20295;-60
2022/03/25 10:40:06;;;;;;;52.35;37.60;;;15.50;51.60;;;;;;5062995;28;20116;-60
2022/03/25 10:42:33;;;;;;;45.05;34.45;;;15.70;51.10;;;;;;5061325;28;20039;-60
2022/03/25 10:45:00;;;;;;;45.40;34.35;;;15.70;51.20;;;;;;5048266;28;20021;-61
2022/03/25 10:47:28;;;;;;;41.38;33.17;;;15.90;50.80;;;;;;5063718;28;20068;-60
2022/03/25 10:49:55;;;;;;;42.90;32.88;;;16.00;50.60;;;;;;5057608;28;20029;-61
2022/03/25 10:52:31;;;;;;;42.00;33.63;;;16.10;50.60;;;;;;5064947;28;20035;-60
2022/03/25 10:55:16;;;;;;;43.13;32.92;;;16.30;50.40;;;;;;5059874;28;20029;-62
2022/03/25 10:57:50;;;;;;;44.38;35.38;;;16.40;49.80;;;;;;5059222;28;20028;-61
2022/03/25 11:00:16;;;;;;;43.35;34.45;;;16.50;49.20;;;;;;5060993;28;20029;-60
2022/03/25 11:02:44;;;;;;;43.55;32.58;;;16.50;49.30;;;;;;5053416;28;20864;-61
2022/03/25 11:05:10;;;;;;;39.08;29.73;;;16.50;49.60;;;;;;5056466;28;20480;-62
2022/03/25 11:07:37;;;;;;;37.55;29.80;;;16.70;49.20;;;;;;5069958;28;20553;-60
2022/03/25 11:10:03;;;;;;;35.53;27.35;;;16.80;48.70;;;;;;5060867;28;20123;-61
2022/03/25 11:12:30;;;;;;;37.22;28.13;;;16.90;48.50;;;;;;5056314;28;20108;-60
2022/03/25 11:14:58;;;;;;;40.13;26.85;;;17.00;48.20;;;;;;5034921;28;20021;-61
2022/03/25 11:17:33;;;;;;;39.47;30.02;;;17.20;47.80;;;;;;5058911;28;20029;-61
2022/03/25 11:20:01;;;;;;;36.45;28.38;;;17.30;47.20;;;;;;5058743;28;20035;-61
2022/03/25 11:22:27;;;;;;;32.58;25.80;;;17.40;47.10;;;;;;5061969;28;20033;-59
2022/03/25 11:24:56;;;;;;;33.65;27.23;;;17.50;47.00;;;;;;5057145;28;20399;-60
2022/03/25 11:27:27;;;;;;;39.83;30.40;;;17.60;46.90;;;;;;5060945;28;20024;-59
2022/03/25 11:29:57;;;;;;;45.42;32.70;;;17.70;46.30;;;;;;5053836;28;20040;-60
2022/03/25 11:32:23;;;;;;;36.80;30.60;;;17.70;45.70;;;;;;5052228;28;20563;-60
2022/03/25 11:34:55;;;;;;;44.92;32.97;;;17.80;46.10;;;;;;5068334;28;20376;-61
2022/03/25 11:37:27;;;;;;;37.17;28.67;;;17.80;45.90;;;;;;5053814;28;20021;-61
2022/03/25 11:40:25;;;;;;;31.65;25.98;;;18.00;45.90;;;;;;5054293;28;20387;-61
2022/03/25 11:42:52;;;;;;;35.22;25.65;;;18.10;45.50;;;;;;5060067;28;20496;-61
2022/03/25 11:45:25;;;;;;;34.55;25.77;;;18.30;45.10;;;;;;5063328;28;20127;-60
2022/03/25 11:47:59;;;;;;;37.22;29.02;;;18.40;44.70;;;;;;5052691;28;20055;-61
2022/03/25 11:50:36;;;;;;;36.95;28.48;;;18.60;44.20;;;;;;5058819;28;20095;-61
2022/03/25 11:53:11;;;;;;;35.28;28.00;;;18.70;44.00;;;;;;5065616;28;20468;-62
2022/03/25 11:55:53;;;;;;;39.53;29.83;;;18.80;43.40;;;;;;5052319;28;20496;-62
2022/03/25 11:58:19;;;;;;;35.42;27.13;;;18.90;42.90;;;;;;5054898;28;20079;-62
2022/03/25 12:00:48;;;;;;;35.67;28.40;;;19.00;42.80;;;;;;5066280;28;20033;-62
2022/03/25 12:03:17;;;;;;;39.70;31.27;;;19.10;42.60;;;;;;5059247;28;20115;-62
2022/03/25 12:05:59;;;;;;;39.13;31.20;;;19.20;42.20;;;;;;5040138;28;20024;-62
2022/03/25 12:08:27;;;;;;;44.40;30.50;;;19.30;43.20;;;;;;5048818;28;20111;-61
2022/03/25 12:10:54;;;;;;;35.35;28.25;;;19.40;42.60;;;;;;5053909;28;20127;-62
2022/03/25 12:13:21;;;;;;;35.88;28.52;;;19.50;42.20;;;;;;5053534;28;20396;-62
2022/03/25 12:15:48;;;;;;;40.50;29.92;;;19.60;42.00;;;;;;5049677;28;20041;-61
2022/03/25 12:18:46;;;;;;;33.83;28.92;;;19.60;41.50;;;;;;5058017;28;20040;-61
2022/03/25 12:21:21;;;;;;;44.10;29.30;;;19.60;41.50;;;;;;5037665;28;20472;-61
2022/03/25 12:23:58;;;;;;;37.80;28.85;;;19.70;41.00;;;;;;5058970;28;20037;-62
2022/03/25 12:26:35;;;;;;;36.08;29.35;;;19.80;41.00;;;;;;5060171;28;20020;-62
2022/03/25 12:29:02;;;;;;;35.95;29.20;;;19.80;41.20;;;;;;5058016;28;20446;-61
2022/03/25 12:31:29;;;;;;;36.95;28.55;;;19.90;41.00;;;;;;5055272;28;20063;-62
2022/03/25 12:33:55;;;;;;;36.65;27.67;;;19.90;40.80;;;;;;5057314;28;20017;-62
2022/03/25 12:36:43;;;;;;;33.50;27.30;;;19.90;40.40;;;;;;5052775;28;20120;-61
2022/03/25 12:39:15;;;;;;;32.53;26.55;;;20.00;40.80;;;;;;5052113;28;20542;-62